createdAt,value
2023-04-22T00:01:24.618Z,6.90
2023-04-22T00:03:51.995Z,9.27
2023-04-22T00:06:19.415Z,5.57
2023-04-22T00:08:48.914Z,7.07
2023-04-22T00:11:15.749Z,6.88
2023-04-22T00:13:42.991Z,6.43
2023-04-22T00:16:10.152Z,4.78
2023-04-22T00:18:37.099Z,5.30
2023-04-22T00:21:04.768Z,7.97
2023-04-22T00:23:32.442Z,6.50
2023-04-22T00:26:01.637Z,5.80
2023-04-22T00:28:34.157Z,7.50
2023-04-22T00:31:03.316Z,6.32
2023-04-22T00:33:30.842Z,8.13
2023-04-22T00:35:57.654Z,7.45
2023-04-22T00:38:24.444Z,5.78
2023-04-22T00:40:52.092Z,7.22
2023-04-22T00:43:18.907Z,6.30
2023-04-22T00:45:47.543Z,11.55
2023-04-22T00:50:45.332Z,7.25
2023-04-22T00:53:11.947Z,7.53
2023-04-22T00:55:40.176Z,7.75
2023-04-22T00:58:08.181Z,5.40
2023-04-22T01:00:36.150Z,4.80
2023-04-22T01:03:06.861Z,5.97
2023-04-22T01:05:34.873Z,9.68
2023-04-22T01:08:02.597Z,5.72
2023-04-22T01:10:29.659Z,8.40
2023-04-22T01:12:56.300Z,7.28
2023-04-22T01:15:23.133Z,5.07
2023-04-22T01:17:49.925Z,6.68
2023-04-22T01:20:16.558Z,5.93
2023-04-22T01:22:46.653Z,7.53
2023-04-22T01:25:16.088Z,9.32
2023-04-22T01:27:44.336Z,5.75
2023-04-22T01:30:11.576Z,7.60
2023-04-22T01:32:40.326Z,6.50
2023-04-22T01:35:07.903Z,6.63
2023-04-22T01:37:35.291Z,6.50
2023-04-22T01:40:03.100Z,7.35
2023-04-22T01:42:31.123Z,8.52
2023-04-22T01:44:57.999Z,7.03
2023-04-22T01:47:24.847Z,8.25
2023-04-22T01:49:52.505Z,7.75
2023-04-22T01:52:19.219Z,7.00
2023-04-22T01:54:49.013Z,6.97
2023-04-22T01:57:16.546Z,7.00
2023-04-22T01:59:45.481Z,7.00
2023-04-22T02:02:12.237Z,6.82
2023-04-22T02:04:38.936Z,6.20
2023-04-22T02:07:06.849Z,8.77
2023-04-22T02:09:34.067Z,7.32
2023-04-22T02:12:01.549Z,7.35
2023-04-22T02:14:28.154Z,7.85
2023-04-22T02:16:55.907Z,8.73
2023-04-22T02:19:22.635Z,8.10
2023-04-22T02:21:49.350Z,7.55
2023-04-22T02:24:16.599Z,9.32
2023-04-22T02:26:43.497Z,6.80
2023-04-22T02:29:10.421Z,8.73
2023-04-22T02:31:37.438Z,6.55
2023-04-22T02:34:04.190Z,8.85
2023-04-22T02:36:31.975Z,5.88
2023-04-22T02:38:59.594Z,10.45
2023-04-22T02:41:26.438Z,6.45
2023-04-22T02:43:53.147Z,9.55
2023-04-22T02:46:19.909Z,7.18
2023-04-22T02:48:47.057Z,7.97
2023-04-22T02:51:13.877Z,9.98
2023-04-22T02:53:40.836Z,8.27
2023-04-22T02:56:08.731Z,7.40
2023-04-22T02:58:35.451Z,9.55
2023-04-22T03:01:02.177Z,7.07
2023-04-22T03:03:29.044Z,9.85
2023-04-22T03:05:56.018Z,8.32
2023-04-22T03:08:22.793Z,8.70
2023-04-22T03:10:49.465Z,7.00
2023-04-22T03:13:18.162Z,6.70
2023-04-22T03:15:45.034Z,8.45
2023-04-22T03:18:11.761Z,10.35
2023-04-22T03:20:38.490Z,7.38
2023-04-22T03:23:07.094Z,6.43
2023-04-22T03:25:33.712Z,7.60
2023-04-22T03:28:04.156Z,5.93
2023-04-22T03:30:30.869Z,7.50
2023-04-22T03:32:58.088Z,7.90
2023-04-22T03:35:25.750Z,8.20
2023-04-22T03:37:52.451Z,7.90
2023-04-22T03:40:20.135Z,8.40
2023-04-22T03:42:49.706Z,7.43
2023-04-22T03:45:21.062Z,8.93
2023-04-22T03:47:50.819Z,10.63
2023-04-22T03:50:20.687Z,8.10
2023-04-22T03:52:50.319Z,7.90
2023-04-22T03:55:18.971Z,10.05
2023-04-22T04:00:13.066Z,9.10
2023-04-22T04:02:39.828Z,7.68
2023-04-22T04:05:09.184Z,12.10
2023-04-22T04:07:35.867Z,8.77
2023-04-22T04:10:02.612Z,10.05
2023-04-22T04:12:29.267Z,8.18
2023-04-22T04:14:55.797Z,10.80
2023-04-22T04:17:25.775Z,9.40
2023-04-22T04:19:53.078Z,10.00
2023-04-22T04:22:20.262Z,11.10
2023-04-22T04:24:47.549Z,9.23
2023-04-22T04:27:14.689Z,9.25
2023-04-22T04:29:42.255Z,9.65
2023-04-22T04:32:10.128Z,12.55
2023-04-22T04:34:39.256Z,9.98
2023-04-22T04:37:06.017Z,12.00
2023-04-22T04:39:33.006Z,10.88
2023-04-22T04:42:00.543Z,8.85
2023-04-22T04:44:27.464Z,10.23
2023-04-22T04:46:55.020Z,9.65
2023-04-22T04:49:21.957Z,9.82
2023-04-22T04:51:51.507Z,10.35
2023-04-22T04:54:21.111Z,10.52
2023-04-22T04:56:50.204Z,11.30
2023-04-22T04:59:16.844Z,13.73
2023-04-22T05:01:43.582Z,10.93
2023-04-22T05:04:10.589Z,9.27
2023-04-22T05:06:37.327Z,9.85
2023-04-22T05:09:04.016Z,10.90
2023-04-22T05:11:30.787Z,10.40
2023-04-22T05:13:57.592Z,11.05
2023-04-22T05:16:24.469Z,10.70
2023-04-22T05:18:54.679Z,9.45
2023-04-22T05:21:21.466Z,11.43
2023-04-22T05:23:48.368Z,8.57
2023-04-22T05:26:15.324Z,8.52
2023-04-22T05:28:43.176Z,8.27
2023-04-22T05:31:10.010Z,10.32
2023-04-22T05:33:36.701Z,8.10
2023-04-22T05:36:03.425Z,7.43
2023-04-22T05:38:30.080Z,8.95
2023-04-22T05:40:56.669Z,10.60
2023-04-22T05:43:23.388Z,8.15
2023-04-22T05:45:52.382Z,10.52
2023-04-22T05:48:21.415Z,9.00
2023-04-22T05:50:48.181Z,7.40
2023-04-22T05:53:14.799Z,10.45
2023-04-22T05:55:41.482Z,8.55
2023-04-22T05:58:08.103Z,9.10
2023-04-22T06:00:34.725Z,9.38
2023-04-22T06:03:01.478Z,8.38
2023-04-22T06:05:28.412Z,8.23
2023-04-22T06:07:55.365Z,9.20
2023-04-22T06:10:22.056Z,8.55
2023-04-22T06:12:49.036Z,7.57
2023-04-22T06:15:15.942Z,8.68
2023-04-22T06:17:44.301Z,8.43
2023-04-22T06:20:11.621Z,8.20
2023-04-22T06:22:38.225Z,10.55
2023-04-22T06:25:05.384Z,8.38
2023-04-22T06:27:32.239Z,10.35
2023-04-22T06:29:58.923Z,6.75
2023-04-22T06:32:25.591Z,9.82
2023-04-22T06:34:53.167Z,7.97
2023-04-22T06:37:20.943Z,7.22
2023-04-22T06:39:47.567Z,7.68
2023-04-22T06:42:14.450Z,10.50
2023-04-22T06:44:41.118Z,11.05
2023-04-22T06:47:08.969Z,8.07
2023-04-22T06:49:38.632Z,9.55
2023-04-22T06:52:06.487Z,7.63
2023-04-22T06:54:33.242Z,8.95
2023-04-22T06:56:59.957Z,8.50
2023-04-22T06:59:26.680Z,9.20
2023-04-22T07:01:54.505Z,7.13
2023-04-22T07:04:21.921Z,9.90
2023-04-22T07:06:50.987Z,8.45
2023-04-22T07:09:17.687Z,7.45
2023-04-22T07:11:44.346Z,8.50
2023-04-22T07:14:10.906Z,10.38
2023-04-22T07:16:38.978Z,8.82
2023-04-22T07:19:08.377Z,9.55
2023-04-22T07:21:35.172Z,9.75
2023-04-22T07:24:01.796Z,10.10
2023-04-22T07:26:28.482Z,8.57
2023-04-22T07:28:55.091Z,10.85
2023-04-22T07:31:21.734Z,8.55
2023-04-22T07:33:48.405Z,8.57
2023-04-22T07:36:15.306Z,8.15
2023-04-22T07:38:42.011Z,10.25
2023-04-22T07:41:08.658Z,11.70
2023-04-22T07:43:35.310Z,9.85
2023-04-22T07:46:02.158Z,8.57
2023-04-22T07:48:28.942Z,9.07
2023-04-22T07:50:55.680Z,8.95
2023-04-22T07:53:22.480Z,8.70
2023-04-22T07:55:53.043Z,8.82
2023-04-22T07:58:20.167Z,9.20
2023-04-22T08:00:46.864Z,8.60
2023-04-22T08:03:14.089Z,11.75
2023-04-22T08:05:41.078Z,11.00
2023-04-22T08:08:08.181Z,10.93
2023-04-22T08:10:34.802Z,8.15
2023-04-22T08:13:01.643Z,9.18
2023-04-22T08:15:28.301Z,9.25
2023-04-22T08:17:55.066Z,10.50
2023-04-22T08:20:21.839Z,9.25
2023-04-22T08:22:50.659Z,8.80
2023-04-22T08:25:17.637Z,8.00
2023-04-22T08:27:44.281Z,9.35
2023-04-22T08:30:11.199Z,8.00
2023-04-22T08:32:38.009Z,8.57
2023-04-22T08:35:05.652Z,9.80
2023-04-22T08:37:32.560Z,8.85
2023-04-22T08:39:59.132Z,11.25
2023-04-22T08:42:27.319Z,10.32
2023-04-22T08:44:57.548Z,9.68
2023-04-22T08:47:25.623Z,9.50
2023-04-22T08:49:55.149Z,10.45
2023-04-22T08:52:22.185Z,11.63
2023-04-22T08:54:50.707Z,10.07
2023-04-22T08:57:18.070Z,9.63
2023-04-22T08:59:45.444Z,8.70
2023-04-22T09:02:21.576Z,10.07
2023-04-22T09:04:52.386Z,10.20
2023-04-22T09:07:27.664Z,8.23
2023-04-22T09:09:58.645Z,8.32
2023-04-22T09:12:25.919Z,10.80
2023-04-22T09:14:52.900Z,10.60
2023-04-22T09:17:33.485Z,11.43
2023-04-22T09:20:02.625Z,9.35
2023-04-22T09:22:36.951Z,12.50
2023-04-22T09:25:15.507Z,9.00
2023-04-22T09:27:42.217Z,10.98
2023-04-22T09:30:10.017Z,8.20
2023-04-22T09:32:41.462Z,10.82
2023-04-22T09:35:08.583Z,8.93
2023-04-22T09:37:46.631Z,9.25
2023-04-22T09:40:21.427Z,10.25
2023-04-22T09:42:54.636Z,9.00
2023-04-22T09:45:32.848Z,8.65
2023-04-22T09:48:09.657Z,10.68
2023-04-22T09:50:38.616Z,9.77
2023-04-22T09:53:10.289Z,9.88
2023-04-22T09:55:54.646Z,9.88
2023-04-22T09:58:27.813Z,11.45
2023-04-22T10:00:59.118Z,8.93
2023-04-22T10:03:26.079Z,10.52
2023-04-22T10:05:52.705Z,10.02
2023-04-22T10:08:31.617Z,9.05
2023-04-22T10:11:00.561Z,11.32
2023-04-22T10:13:29.153Z,9.50
2023-04-22T10:15:57.177Z,8.55
2023-04-22T10:18:26.435Z,9.45
2023-04-22T10:20:56.244Z,10.38
2023-04-22T10:23:24.590Z,8.65
2023-04-22T10:25:56.535Z,7.57
2023-04-22T10:28:24.961Z,9.30
2023-04-22T10:30:52.048Z,9.15
2023-04-22T10:33:21.616Z,11.32
2023-04-22T10:36:17.273Z,8.27
2023-04-22T10:38:56.046Z,10.15
2023-04-22T10:41:34.495Z,9.40
2023-04-22T10:44:07.166Z,8.18
2023-04-22T10:46:40.280Z,8.30
2023-04-22T10:49:11.940Z,7.93
2023-04-22T10:51:54.477Z,7.40
2023-04-22T10:54:32.559Z,8.90
2023-04-22T10:57:10.958Z,8.70
2023-04-22T10:59:58.080Z,7.82
2023-04-22T11:02:24.810Z,8.23
2023-04-22T11:04:54.852Z,7.65
2023-04-22T11:07:27.315Z,7.70
2023-04-22T11:10:07.141Z,6.53
2023-04-22T11:12:39.584Z,8.38
2023-04-22T11:15:09.478Z,8.82
2023-04-22T11:17:38.679Z,8.73
2023-04-22T11:20:07.185Z,7.72
2023-04-22T11:22:38.784Z,7.03
2023-04-22T11:25:06.538Z,7.70
2023-04-22T11:27:33.362Z,8.23
2023-04-22T11:30:06.029Z,8.10
2023-04-22T11:32:34.054Z,7.90
2023-04-22T11:35:10.577Z,9.98
2023-04-22T11:37:43.713Z,8.63
2023-04-22T11:40:29.062Z,8.00
2023-04-22T11:42:58.954Z,7.40
2023-04-22T11:47:53.609Z,8.55
2023-04-22T11:50:29.818Z,10.05
2023-04-22T11:52:59.507Z,7.18
2023-04-22T11:55:45.393Z,6.65
2023-04-22T11:58:15.451Z,6.43
2023-04-22T12:00:44.830Z,6.60
2023-04-22T12:03:21.431Z,6.63
2023-04-22T12:05:55.612Z,6.85
2023-04-22T12:08:24.751Z,8.57
2023-04-22T12:10:57.253Z,6.45
2023-04-22T12:13:30.651Z,8.48
2023-04-22T12:16:05.248Z,8.68
2023-04-22T12:18:33.760Z,6.40
2023-04-22T12:21:06.709Z,7.43
2023-04-22T12:23:43.589Z,6.35
2023-04-22T12:26:10.731Z,6.70
2023-04-22T12:28:38.710Z,6.32
2023-04-22T12:31:05.823Z,5.38
2023-04-22T12:33:33.213Z,8.10
2023-04-22T12:36:00.108Z,6.53
2023-04-22T12:38:26.959Z,8.80
2023-04-22T12:40:54.553Z,11.25
2023-04-22T12:43:21.465Z,8.20
2023-04-22T12:45:48.113Z,7.72
2023-04-22T12:48:14.784Z,5.70
2023-04-22T12:50:42.076Z,6.00
2023-04-22T12:53:08.796Z,6.30
2023-04-22T12:55:36.579Z,7.40
2023-04-22T13:00:31.025Z,6.47
2023-04-22T13:02:57.935Z,7.05
2023-04-22T13:05:26.115Z,7.53
2023-04-22T13:08:03.509Z,6.97
2023-04-22T13:10:33.633Z,5.90
2023-04-22T13:13:10.188Z,8.73
2023-04-22T13:15:43.362Z,6.18
2023-04-22T13:18:10.060Z,6.50
2023-04-22T13:20:36.838Z,6.32
2023-04-22T13:23:04.767Z,6.10
2023-04-22T13:25:32.072Z,6.10
2023-04-22T13:27:58.769Z,6.55
2023-04-22T13:30:25.513Z,7.97
2023-04-22T13:32:52.351Z,7.88
2023-04-22T13:35:21.528Z,6.22
2023-04-22T13:37:48.177Z,6.65
2023-04-22T13:40:15.415Z,5.57
2023-04-22T13:42:42.882Z,6.97
2023-04-22T13:45:10.117Z,8.15
2023-04-22T13:47:36.791Z,6.55
2023-04-22T13:50:05.395Z,5.55
2023-04-22T13:52:32.345Z,6.10
2023-04-22T13:54:58.999Z,5.70
2023-04-22T13:57:26.000Z,7.10
2023-04-22T13:59:52.839Z,5.75
2023-04-22T14:02:20.115Z,6.15
2023-04-22T14:04:46.830Z,5.05
2023-04-22T14:07:13.464Z,5.63
2023-04-22T14:09:40.546Z,9.13
2023-04-22T14:12:08.430Z,6.60
2023-04-22T14:14:35.354Z,5.72
2023-04-22T14:17:02.196Z,6.93
2023-04-22T14:19:30.623Z,7.30
2023-04-22T14:21:57.988Z,4.90
2023-04-22T14:24:24.829Z,6.63
2023-04-22T14:26:52.584Z,4.53
2023-04-22T14:31:52.618Z,5.88
2023-04-22T14:34:21.600Z,6.25
2023-04-22T14:36:49.004Z,4.97
2023-04-22T14:39:16.354Z,5.25
2023-04-22T14:41:44.061Z,6.07
2023-04-22T14:44:10.920Z,7.25
2023-04-22T14:46:37.769Z,6.25
2023-04-22T14:49:05.241Z,5.28
2023-04-22T14:51:32.652Z,5.35
2023-04-22T14:53:59.364Z,9.23
2023-04-22T14:56:25.965Z,7.55
2023-04-22T14:58:52.612Z,7.15
2023-04-22T15:01:22.978Z,7.32
2023-04-22T15:03:51.785Z,6.40
2023-04-22T15:06:18.592Z,6.40
2023-04-22T15:08:45.271Z,7.00
2023-04-22T15:11:11.892Z,5.13
2023-04-22T15:13:39.129Z,10.90
2023-04-22T15:16:06.210Z,5.70
2023-04-22T15:18:32.991Z,4.85
2023-04-22T15:20:59.658Z,7.55
2023-04-22T15:23:26.380Z,5.20
2023-04-22T15:25:52.984Z,5.13
2023-04-22T15:28:21.097Z,7.63
2023-04-22T15:30:48.846Z,7.53
2023-04-22T15:33:15.916Z,6.05
2023-04-22T15:35:46.242Z,5.93
2023-04-22T15:38:13.072Z,7.55
2023-04-22T15:40:39.761Z,7.35
2023-04-22T15:43:06.532Z,6.90
2023-04-22T15:45:35.143Z,5.95
2023-04-22T15:48:01.975Z,5.28
2023-04-22T15:50:28.963Z,5.80
2023-04-22T15:52:55.629Z,5.80
2023-04-22T15:55:22.467Z,6.68
2023-04-22T15:57:49.786Z,8.05
2023-04-22T16:00:16.893Z,6.72
2023-04-22T16:02:44.530Z,5.45
2023-04-22T16:05:11.966Z,10.55
2023-04-22T16:07:39.148Z,8.95
2023-04-22T16:10:06.913Z,8.75
2023-04-22T16:12:34.460Z,8.35
2023-04-22T16:15:01.614Z,13.73
2023-04-22T16:17:28.446Z,9.95
2023-04-22T16:19:55.603Z,8.70
2023-04-22T16:22:22.221Z,8.48
2023-04-22T16:24:51.287Z,11.38
2023-04-22T16:27:19.793Z,8.57
2023-04-22T16:29:46.573Z,7.95
2023-04-22T16:32:13.353Z,7.68
2023-04-22T16:34:40.208Z,5.70
2023-04-22T16:37:06.924Z,7.63
2023-04-22T16:39:33.938Z,7.30
2023-04-22T16:42:02.371Z,7.47
2023-04-22T16:44:29.104Z,7.25
2023-04-22T16:46:55.680Z,6.97
2023-04-22T16:49:22.381Z,6.70
2023-04-22T16:51:49.334Z,9.05
2023-04-22T16:54:16.065Z,6.68
2023-04-22T16:56:42.728Z,7.25
2023-04-22T16:59:09.462Z,8.95
2023-04-22T17:01:36.260Z,7.47
2023-04-22T17:04:03.401Z,6.90
2023-04-22T17:06:30.146Z,7.07
2023-04-22T17:08:56.803Z,8.63
2023-04-22T17:11:24.139Z,7.57
2023-04-22T17:13:53.848Z,7.53
2023-04-22T17:16:23.498Z,9.18
2023-04-22T17:18:51.118Z,6.85
2023-04-22T17:21:17.805Z,6.43
2023-04-22T17:23:44.502Z,6.82
2023-04-22T17:26:11.158Z,6.28
2023-04-22T17:28:37.746Z,7.07
2023-04-22T17:31:04.505Z,8.32
2023-04-22T17:33:31.339Z,9.50
2023-04-22T17:35:58.233Z,7.93
2023-04-22T17:38:24.989Z,6.93
2023-04-22T17:40:52.257Z,7.30
2023-04-22T17:43:26.014Z,6.38
2023-04-22T17:45:53.565Z,7.35
2023-04-22T17:48:22.244Z,7.22
2023-04-22T17:50:51.856Z,7.07
2023-04-22T17:53:18.511Z,6.47
2023-04-22T17:55:45.155Z,8.20
2023-04-22T17:58:12.928Z,7.43
2023-04-22T18:00:39.688Z,5.60
2023-04-22T18:03:10.455Z,7.60
2023-04-22T18:05:43.080Z,9.65
2023-04-22T18:08:10.940Z,7.28
2023-04-22T18:10:38.106Z,5.65
2023-04-22T18:13:05.915Z,7.15
2023-04-22T18:15:32.684Z,9.68
2023-04-22T18:17:59.418Z,6.43
2023-04-22T18:20:26.073Z,9.23
2023-04-22T18:22:56.526Z,8.13
2023-04-22T18:25:24.289Z,6.63
2023-04-22T18:27:55.872Z,8.23
2023-04-22T18:30:23.735Z,7.95
2023-04-22T18:32:53.754Z,8.55
2023-04-22T18:35:23.537Z,6.68
2023-04-22T18:37:52.126Z,7.35
2023-04-22T18:40:20.896Z,7.82
2023-04-22T18:42:47.845Z,6.75
2023-04-22T18:45:16.517Z,7.10
2023-04-22T18:47:44.148Z,5.97
2023-04-22T18:50:11.055Z,7.18
2023-04-22T18:52:37.820Z,7.25
2023-04-22T18:55:06.498Z,5.40
2023-04-22T18:57:33.249Z,7.95
2023-04-22T18:59:59.945Z,6.78
2023-04-22T19:02:27.068Z,7.03
2023-04-22T19:04:54.280Z,8.82
2023-04-22T19:07:21.587Z,8.27
2023-04-22T19:09:48.688Z,9.07
2023-04-22T19:12:16.703Z,8.05
2023-04-22T19:14:43.705Z,9.82
2023-04-22T19:17:11.022Z,10.18
2023-04-22T19:19:37.902Z,10.70
2023-04-22T19:22:06.784Z,8.88
2023-04-22T19:24:40.465Z,12.20
2023-04-22T19:27:12.439Z,8.98
2023-04-22T19:29:40.733Z,8.60
2023-04-22T19:32:11.112Z,7.35
2023-04-22T19:34:38.972Z,13.90
2023-04-22T19:37:05.875Z,11.55
2023-04-22T19:39:32.682Z,9.73
2023-04-22T19:42:03.321Z,6.85
2023-04-22T19:44:30.611Z,11.13
2023-04-22T19:46:57.442Z,9.60
2023-04-22T19:49:24.639Z,9.50
2023-04-22T19:51:52.652Z,10.50
2023-04-22T19:54:21.936Z,7.68
2023-04-22T19:56:51.551Z,8.27
2023-04-22T19:59:21.828Z,9.63
2023-04-22T20:01:48.653Z,9.70
2023-04-22T20:04:16.041Z,10.82
2023-04-22T20:06:44.990Z,10.65
2023-04-22T20:09:12.790Z,9.88
2023-04-22T20:11:40.921Z,9.20
2023-04-22T20:14:09.895Z,7.57
2023-04-22T20:16:37.627Z,8.85
2023-04-22T20:19:04.751Z,10.65
2023-04-22T20:21:34.366Z,9.63
2023-04-22T20:24:04.089Z,10.35
2023-04-22T20:26:32.714Z,10.70
2023-04-22T20:29:00.869Z,10.52
2023-04-22T20:31:27.762Z,11.82
2023-04-22T20:33:54.610Z,12.10
2023-04-22T20:36:24.110Z,11.98
2023-04-22T20:38:55.037Z,13.10
2023-04-22T20:41:24.744Z,10.88
2023-04-22T20:43:52.393Z,10.57
2023-04-22T20:46:22.834Z,10.55
2023-04-22T20:48:52.570Z,9.43
2023-04-22T20:51:19.937Z,10.10
2023-04-22T20:53:46.660Z,11.38
2023-04-22T20:56:13.450Z,11.70
2023-04-22T20:58:40.076Z,11.77
2023-04-22T21:01:08.782Z,11.20
2023-04-22T21:03:37.262Z,9.73
2023-04-22T21:06:04.941Z,9.10
2023-04-22T21:08:33.941Z,10.45
2023-04-22T21:11:00.887Z,9.98
2023-04-22T21:13:28.938Z,11.25
2023-04-22T21:15:59.681Z,11.43
2023-04-22T21:18:28.034Z,11.57
2023-04-22T21:23:24.465Z,10.80
2023-04-22T21:25:59.332Z,12.02
2023-04-22T21:28:26.630Z,11.07
2023-04-22T21:30:53.884Z,9.85
2023-04-22T21:33:25.301Z,11.88
2023-04-22T21:35:52.449Z,11.85
2023-04-22T21:38:20.115Z,12.32
2023-04-22T21:40:53.209Z,10.20
2023-04-22T21:43:22.099Z,9.88
2023-04-22T21:45:51.318Z,11.43
2023-04-22T21:48:18.018Z,10.93
2023-04-22T21:50:44.652Z,17.05
2023-04-22T21:53:11.986Z,10.52
2023-04-22T21:55:39.459Z,17.20
2023-04-22T21:58:06.417Z,18.02
2023-04-22T22:00:33.413Z,15.18
2023-04-22T22:03:00.874Z,18.08
2023-04-22T22:05:27.919Z,32.97
2023-04-22T22:07:55.378Z,17.38
2023-04-22T22:10:24.971Z,11.40
2023-04-22T22:12:54.497Z,10.77
2023-04-22T22:15:21.877Z,12.50
2023-04-22T22:17:53.456Z,10.00
2023-04-22T22:20:23.907Z,16.92
2023-04-22T22:22:53.279Z,12.70
2023-04-22T22:25:20.505Z,13.25
2023-04-22T22:27:57.940Z,11.65
2023-04-22T22:30:24.672Z,11.02
2023-04-22T22:32:54.370Z,13.95
2023-04-22T22:35:24.102Z,15.52
2023-04-22T22:37:52.240Z,9.52
2023-04-22T22:40:21.287Z,9.85
2023-04-22T22:42:48.064Z,11.15
2023-04-22T22:45:14.852Z,11.30
2023-04-22T22:47:41.563Z,10.10
2023-04-22T22:50:08.616Z,12.63
2023-04-22T22:52:35.360Z,11.13
2023-04-22T22:55:02.018Z,10.30
2023-04-22T22:57:28.711Z,10.82
2023-04-22T22:59:56.756Z,9.13
2023-04-22T23:02:26.111Z,8.77
2023-04-22T23:04:53.964Z,10.75
2023-04-22T23:07:23.770Z,11.15
2023-04-22T23:09:53.524Z,9.65
2023-04-22T23:12:23.092Z,8.80
2023-04-22T23:14:52.929Z,9.30
2023-04-22T23:17:22.294Z,8.80
2023-04-22T23:19:54.480Z,11.23
2023-04-22T23:22:22.136Z,8.38
2023-04-22T23:24:49.589Z,7.43
2023-04-22T23:27:17.491Z,9.73
2023-04-22T23:29:44.432Z,8.85
2023-04-22T23:32:15.020Z,10.38
2023-04-22T23:34:44.987Z,8.77
2023-04-22T23:37:14.850Z,9.02
2023-04-22T23:39:42.618Z,10.07
2023-04-22T23:42:09.418Z,9.70
2023-04-22T23:44:36.162Z,10.20
2023-04-22T23:47:03.731Z,9.15
2023-04-22T23:49:30.515Z,8.13
2023-04-22T23:51:57.217Z,9.57
2023-04-22T23:54:24.116Z,7.65
2023-04-22T23:56:53.836Z,6.82
2023-04-22T23:59:23.605Z,9.02
